Piripa, Brazil
Current Conditions -  °F | °C
As of 4:00 PM on Thursday 23 Oct 2014 (Local Time) from SBQV Reporting Station
Drizzle Drizzle  
Wind Chill: 68°   Ceiling: 1500
Heat Index: 68°   Visibility: 6mi
Dew Point: 66°   Wind: 12mph
Humidity: 94%   Direction: 140°SE
Pressure: 30.12"   Gusts: NA
Location:  14.94°S, 41.72°W
Report Text: SBQV 231900Z 14010KT 9999 3000SE -DZ FEW006 BKN015 20/19 Q1020
Loading
Personal Weather Stations






























Interactive Weather Map
Tropical Storm Tracking
New forecast layout! Learn more

10-Day Weather Forecast

Advertisements
Track Severe Weather on mobile